Time;durP1;ratioP1;P1;durP2;ratioP2;P2;SDS_P1;SDS_P2;PMS_P1;PMS_P2;Temp;Humidity;BMP_temperature;BMP_pressure;BME280_temperature;BME280_humidity;BME280_pressure;Samples;Min_cycle;Max_cycle;Signal;HPM_P1;HPM_P2
2023/10/23 00:02:19;;;;;;;10.75;9.65;;;7.50;99.90;;;;;;5032854;28;20040;-83
2023/10/23 00:04:45;;;;;;;12.63;9.95;;;7.50;99.90;;;;;;5048286;28;20032;-83
2023/10/23 00:07:11;;;;;;;11.60;9.80;;;7.40;99.90;;;;;;5053137;28;20029;-84
2023/10/23 00:09:37;;;;;;;14.43;10.35;;;7.50;99.90;;;;;;5041910;28;20120;-83
2023/10/23 00:12:02;;;;;;;10.00;9.10;;;7.40;99.90;;;;;;5039667;28;20076;-83
2023/10/23 00:14:28;;;;;;;12.65;10.85;;;7.40;99.90;;;;;;5036683;28;20064;-82
2023/10/23 00:16:54;;;;;;;13.18;10.93;;;7.40;99.90;;;;;;5047929;28;20075;-84
2023/10/23 00:19:19;;;;;;;12.93;9.88;;;7.40;99.90;;;;;;5047289;28;20155;-83
2023/10/23 00:21:45;;;;;;;11.82;9.70;;;7.40;99.90;;;;;;5047181;28;20037;-83
2023/10/23 00:24:11;;;;;;;11.77;10.65;;;7.30;99.90;;;;;;5031068;28;20040;-83
2023/10/23 00:26:36;;;;;;;11.95;10.75;;;7.30;99.90;;;;;;5046121;28;20064;-83
2023/10/23 00:29:03;;;;;;;11.02;9.90;;;7.30;99.90;;;;;;5026464;28;20029;-84
2023/10/23 00:31:28;;;;;;;12.60;11.25;;;7.30;99.90;;;;;;5046941;28;20073;-83
2023/10/23 00:33:54;;;;;;;12.50;11.20;;;7.30;99.90;;;;;;5032313;28;20049;-83
2023/10/23 00:36:20;;;;;;;11.40;10.27;;;7.30;99.90;;;;;;5047741;28;20411;-83
2023/10/23 00:38:45;;;;;;;11.25;10.15;;;7.30;99.90;;;;;;5030600;28;20045;-83
2023/10/23 00:41:11;;;;;;;11.13;10.02;;;7.20;99.90;;;;;;5043587;28;20071;-84
2023/10/23 00:43:36;;;;;;;14.65;10.50;;;7.20;99.90;;;;;;5029121;28;20106;-83
2023/10/23 00:46:10;;;;;;;13.95;11.27;;;7.30;99.90;;;;;;5028873;28;20032;-83
2023/10/23 00:48:36;;;;;;;11.27;10.13;;;7.30;99.90;;;;;;5044258;28;20041;-83
2023/10/23 00:51:03;;;;;;;17.50;12.30;;;7.30;99.90;;;;;;5055957;28;20430;-83
2023/10/23 00:53:35;;;;;;;11.50;10.30;;;7.30;99.90;;;;;;5028512;28;20433;-82
2023/10/23 00:56:04;;;;;;;10.27;9.27;;;7.20;99.90;;;;;;5027000;28;20052;-84
2023/10/23 00:58:31;;;;;;;12.85;10.68;;;7.20;99.90;;;;;;5039561;28;20086;-84
2023/10/23 01:00:58;;;;;;;13.20;11.15;;;7.20;99.90;;;;;;5043634;28;20703;-84
2023/10/23 01:03:25;;;;;;;11.30;10.20;;;7.20;99.90;;;;;;5044745;28;20041;-83
2023/10/23 01:05:51;;;;;;;11.20;10.02;;;7.20;99.90;;;;;;5026966;28;20030;-84
2023/10/23 01:08:17;;;;;;;11.25;10.15;;;7.10;99.90;;;;;;5032602;28;20764;-84
2023/10/23 01:10:44;;;;;;;12.77;9.45;;;7.10;99.90;;;;;;5043847;28;20038;-84
2023/10/23 01:13:10;;;;;;;11.52;10.32;;;7.00;99.90;;;;;;5043686;28;20029;-84
2023/10/23 01:15:36;;;;;;;11.43;10.13;;;7.00;99.90;;;;;;5046055;28;20041;-82
2023/10/23 01:18:05;;;;;;;11.73;10.40;;;6.90;99.90;;;;;;5030786;28;20076;-83
2023/10/23 01:20:31;;;;;;;10.30;9.40;;;6.90;99.90;;;;;;5047503;28;20040;-83
2023/10/23 01:22:58;;;;;;;11.38;10.20;;;6.90;99.90;;;;;;5038664;28;20041;-84
2023/10/23 01:25:24;;;;;;;10.10;9.10;;;6.80;99.90;;;;;;5052159;28;20033;-83
2023/10/23 01:27:50;;;;;;;11.20;9.65;;;6.80;99.90;;;;;;5033985;28;20044;-83
2023/10/23 01:30:15;;;;;;;12.63;11.32;;;6.80;99.90;;;;;;5050924;28;20041;-84
2023/10/23 01:32:41;;;;;;;11.25;9.88;;;6.70;99.90;;;;;;5045646;28;20041;-83
2023/10/23 01:35:07;;;;;;;11.38;10.20;;;6.70;99.90;;;;;;5029376;28;20037;-83
2023/10/23 01:37:33;;;;;;;10.80;9.80;;;6.60;99.90;;;;;;5035170;28;20052;-84
2023/10/23 01:39:58;;;;;;;10.93;9.95;;;6.60;99.90;;;;;;5049989;28;20043;-83
2023/10/23 01:42:30;;;;;;;12.63;10.50;;;6.50;99.90;;;;;;5051947;28;20037;-84
2023/10/23 01:44:55;;;;;;;10.90;9.88;;;6.50;99.90;;;;;;5056548;28;20032;-84
2023/10/23 01:47:25;;;;;;;11.40;10.30;;;6.50;99.90;;;;;;5030725;28;20036;-82
2023/10/23 01:49:51;;;;;;;10.95;9.73;;;6.50;99.90;;;;;;5029059;28;20037;-84
2023/10/23 01:52:17;;;;;;;11.52;9.68;;;6.50;99.90;;;;;;5033990;28;20056;-84
2023/10/23 01:54:45;;;;;;;10.77;9.55;;;6.50;99.90;;;;;;5034806;28;20039;-82
2023/10/23 01:57:11;;;;;;;11.65;10.35;;;6.50;99.90;;;;;;5035578;28;20050;-83
2023/10/23 01:59:37;;;;;;;12.68;10.10;;;6.50;99.90;;;;;;5058301;28;20072;-83
2023/10/23 02:02:03;;;;;;;9.60;8.60;;;6.40;99.90;;;;;;5034561;28;20522;-83
2023/10/23 02:04:30;;;;;;;11.95;10.30;;;6.40;99.90;;;;;;5032099;28;20043;-83
2023/10/23 02:06:56;;;;;;;10.48;9.40;;;6.40;99.90;;;;;;5033618;28;20039;-83
2023/10/23 02:09:22;;;;;;;10.32;9.18;;;6.40;99.90;;;;;;5033116;28;20032;-83
2023/10/23 02:11:47;;;;;;;12.50;10.52;;;6.40;99.90;;;;;;5038316;28;20041;-83
2023/10/23 02:14:13;;;;;;;10.48;9.38;;;6.30;99.90;;;;;;5033590;28;20082;-84
2023/10/23 02:16:39;;;;;;;9.57;8.60;;;6.30;99.90;;;;;;5033434;28;20029;-84
2023/10/23 02:19:04;;;;;;;9.60;8.68;;;6.30;99.90;;;;;;5033729;28;20029;-84
2023/10/23 02:21:30;;;;;;;10.55;9.45;;;6.30;99.90;;;;;;5034530;28;20039;-83
2023/10/23 02:23:56;;;;;;;9.57;8.57;;;6.30;99.90;;;;;;5055970;28;20408;-83
2023/10/23 02:26:22;;;;;;;10.63;9.57;;;6.20;99.90;;;;;;5035925;28;20033;-83
2023/10/23 02:28:48;;;;;;;9.85;8.77;;;6.20;99.90;;;;;;5032497;28;20190;-83
2023/10/23 02:31:14;;;;;;;9.40;8.38;;;6.20;99.90;;;;;;5064477;28;20033;-82
2023/10/23 02:33:39;;;;;;;11.27;9.50;;;6.10;99.90;;;;;;5047952;28;20087;-84
2023/10/23 02:36:05;;;;;;;10.73;9.75;;;6.10;99.90;;;;;;5052154;28;20128;-83
2023/10/23 02:38:31;;;;;;;11.00;9.15;;;6.10;99.90;;;;;;5049642;28;20048;-83
2023/10/23 02:40:57;;;;;;;10.23;9.25;;;6.10;99.90;;;;;;5052129;28;20033;-83
2023/10/23 02:43:22;;;;;;;12.52;9.18;;;6.00;99.90;;;;;;5033762;28;20645;-84
2023/10/23 02:45:48;;;;;;;10.70;9.60;;;6.00;99.90;;;;;;5033480;28;20045;-83
2023/10/23 02:48:16;;;;;;;9.48;8.57;;;5.90;99.90;;;;;;5034047;28;20100;-83
2023/10/23 02:50:43;;;;;;;12.30;9.85;;;5.90;99.90;;;;;;5049447;28;20040;-83
2023/10/23 02:53:08;;;;;;;11.15;9.85;;;5.90;99.90;;;;;;5032609;28;20086;-84
2023/10/23 02:55:34;;;;;;;12.48;9.45;;;5.90;99.90;;;;;;5034724;28;20048;-83
2023/10/23 02:58:00;;;;;;;10.45;8.80;;;5.90;99.90;;;;;;5029079;28;20094;-84
2023/10/23 03:00:26;;;;;;;10.45;9.23;;;5.90;99.90;;;;;;5057290;23;20033;-88
2023/10/23 03:02:52;;;;;;;10.57;9.55;;;5.90;99.90;;;;;;5069500;28;20127;-88
2023/10/23 03:05:17;;;;;;;9.93;8.73;;;6.00;99.90;;;;;;5069475;28;20028;-88
2023/10/23 03:07:43;;;;;;;10.18;9.23;;;6.00;99.90;;;;;;5052112;28;20530;-87
2023/10/23 03:10:09;;;;;;;11.07;9.55;;;6.00;99.90;;;;;;5063052;28;20036;-88
2023/10/23 03:12:38;;;;;;;12.65;10.52;;;6.00;99.90;;;;;;5074913;28;20040;-88
2023/10/23 03:15:04;;;;;;;9.88;8.85;;;6.00;99.90;;;;;;5080684;28;20041;-88
2023/10/23 03:17:30;;;;;;;10.40;9.30;;;6.00;99.90;;;;;;5077373;28;20372;-88
2023/10/23 03:19:56;;;;;;;10.52;9.27;;;6.10;99.90;;;;;;5071020;28;20089;-88
2023/10/23 03:22:21;;;;;;;11.23;9.85;;;6.10;99.90;;;;;;5069834;28;20040;-88
2023/10/23 03:24:47;;;;;;;12.23;10.90;;;6.00;99.90;;;;;;5068928;28;20032;-88
2023/10/23 03:27:13;;;;;;;11.98;10.88;;;6.10;99.90;;;;;;5054881;28;20450;-88
2023/10/23 03:29:40;;;;;;;10.75;9.65;;;6.10;99.90;;;;;;5069594;28;20075;-88
2023/10/23 03:32:06;;;;;;;12.90;10.35;;;6.10;99.90;;;;;;5053701;28;20116;-88
2023/10/23 03:34:31;;;;;;;11.68;9.57;;;6.10;99.90;;;;;;5052475;28;20465;-88
2023/10/23 03:36:57;;;;;;;11.65;10.45;;;6.10;99.90;;;;;;5069425;28;20038;-87
2023/10/23 03:39:23;;;;;;;11.40;10.00;;;6.10;99.90;;;;;;5065001;28;20064;-88
2023/10/23 03:41:48;;;;;;;11.68;10.48;;;6.10;99.90;;;;;;5069773;28;20052;-88
2023/10/23 03:44:14;;;;;;;12.68;11.38;;;6.10;99.90;;;;;;5051503;28;20034;-88
2023/10/23 03:46:39;;;;;;;12.90;11.60;;;6.10;99.90;;;;;;5054092;28;20120;-87
2023/10/23 03:49:05;;;;;;;11.68;10.48;;;6.20;99.90;;;;;;5047971;28;20033;-88
2023/10/23 03:51:30;;;;;;;13.18;11.88;;;6.20;99.90;;;;;;5069638;28;20040;-88
2023/10/23 03:53:56;;;;;;;13.05;11.60;;;6.20;99.90;;;;;;5053461;28;20056;-88
2023/10/23 03:56:21;;;;;;;12.88;11.30;;;6.30;99.90;;;;;;5073856;28;20414;-87
2023/10/23 03:58:47;;;;;;;12.52;11.05;;;6.30;99.90;;;;;;5072220;28;20097;-88
2023/10/23 04:01:13;;;;;;;11.23;10.02;;;6.30;99.90;;;;;;5073923;28;20036;-88
2023/10/23 04:03:38;;;;;;;13.65;11.02;;;6.30;99.90;;;;;;5068218;28;20036;-88
2023/10/23 04:06:04;;;;;;;11.65;10.48;;;6.30;99.90;;;;;;5055314;28;20486;-87
2023/10/23 04:08:30;;;;;;;11.27;10.02;;;6.40;99.90;;;;;;5070543;28;21539;-88
2023/10/23 04:10:56;;;;;;;12.70;10.60;;;6.40;99.90;;;;;;5053356;28;20043;-88
2023/10/23 04:13:22;;;;;;;12.20;10.90;;;6.30;99.90;;;;;;5068191;28;20037;-88
2023/10/23 04:15:58;;;;;;;11.60;10.50;;;6.30;99.90;;;;;;5051360;28;20047;-88
2023/10/23 04:18:25;;;;;;;12.35;11.05;;;6.30;99.90;;;;;;5068192;28;20036;-87
2023/10/23 04:21:00;;;;;;;11.25;10.10;;;6.30;99.90;;;;;;5068277;28;20064;-87
2023/10/23 04:23:26;;;;;;;10.32;9.23;;;6.30;99.90;;;;;;5051744;28;20036;-87
2023/10/23 04:25:55;;;;;;;11.75;9.20;;;6.30;99.90;;;;;;5068678;28;20036;-88
2023/10/23 04:28:22;;;;;;;9.40;8.43;;;6.20;99.90;;;;;;5069396;28;20464;-87
2023/10/23 04:30:48;;;;;;;8.80;7.90;;;6.20;99.90;;;;;;5067408;28;20064;-87
2023/10/23 04:33:16;;;;;;;7.80;7.10;;;6.10;99.90;;;;;;5051445;28;20121;-88
2023/10/23 04:35:42;;;;;;;8.50;7.55;;;6.10;99.90;;;;;;5051809;28;20067;-87
2023/10/23 04:38:08;;;;;;;8.02;7.32;;;6.10;99.90;;;;;;5051608;28;20040;-87
2023/10/23 04:40:34;;;;;;;8.05;6.40;;;6.00;99.90;;;;;;5068299;28;20398;-88
2023/10/23 04:42:59;;;;;;;7.10;6.45;;;6.00;99.90;;;;;;5068454;28;20033;-88
2023/10/23 04:45:25;;;;;;;7.93;7.10;;;5.90;99.90;;;;;;5068970;28;20033;-87
2023/10/23 04:47:50;;;;;;;7.90;7.05;;;5.90;99.90;;;;;;5051571;28;20035;-87
2023/10/23 04:50:16;;;;;;;8.60;7.57;;;5.90;99.90;;;;;;5047291;28;20478;-87
2023/10/23 04:52:42;;;;;;;7.88;7.15;;;5.80;99.90;;;;;;5052232;28;20072;-87
2023/10/23 04:55:08;;;;;;;10.20;7.43;;;5.80;99.90;;;;;;5067259;28;20076;-88
2023/10/23 04:57:34;;;;;;;8.88;7.97;;;5.80;99.90;;;;;;5049699;28;20064;-88
2023/10/23 05:00:00;;;;;;;8.70;7.88;;;5.80;99.90;;;;;;5051766;28;20032;-87
2023/10/23 05:02:25;;;;;;;7.70;7.00;;;5.80;99.90;;;;;;5051106;28;20128;-87
2023/10/23 05:04:51;;;;;;;10.75;8.80;;;5.80;99.90;;;;;;5049148;28;20028;-87
2023/10/23 05:07:16;;;;;;;10.73;9.05;;;5.90;99.90;;;;;;5052365;28;20032;-87
2023/10/23 05:09:42;;;;;;;10.00;8.95;;;5.80;99.90;;;;;;5051050;28;20123;-87
2023/10/23 05:12:08;;;;;;;11.23;9.45;;;5.90;99.90;;;;;;5069208;28;20040;-87
2023/10/23 05:14:33;;;;;;;11.38;10.18;;;5.90;99.90;;;;;;5051507;28;20076;-86
2023/10/23 05:16:59;;;;;;;11.32;10.10;;;6.00;99.90;;;;;;5052357;28;20456;-87
2023/10/23 05:19:25;;;;;;;10.52;9.52;;;6.00;99.90;;;;;;5052101;28;20475;-87
2023/10/23 05:21:51;;;;;;;12.77;10.07;;;6.00;99.90;;;;;;5067889;28;20072;-87
2023/10/23 05:24:17;;;;;;;12.30;10.55;;;6.10;99.90;;;;;;5050859;28;20036;-87
2023/10/23 05:26:42;;;;;;;10.95;9.95;;;6.10;99.90;;;;;;5067564;28;20414;-87
2023/10/23 05:29:11;;;;;;;10.98;9.82;;;6.10;99.90;;;;;;5067268;28;20107;-87
2023/10/23 05:31:36;;;;;;;16.45;14.85;;;6.10;99.90;;;;;;5048933;28;20072;-88
2023/10/23 05:34:03;;;;;;;23.08;21.05;;;6.20;99.90;;;;;;5068810;28;20499;-87
2023/10/23 05:36:29;;;;;;;13.68;12.27;;;6.10;99.90;;;;;;5068476;28;20572;-87
2023/10/23 05:38:54;;;;;;;13.07;11.82;;;6.10;99.90;;;;;;5053025;28;20067;-87
2023/10/23 05:41:20;;;;;;;14.57;13.13;;;6.10;99.90;;;;;;5067334;28;20123;-88
2023/10/23 05:43:45;;;;;;;15.23;13.73;;;6.10;99.90;;;;;;5049175;28;20032;-87
2023/10/23 05:46:11;;;;;;;13.20;11.95;;;6.10;99.90;;;;;;5067192;28;20410;-88
2023/10/23 05:48:37;;;;;;;13.70;12.35;;;6.10;99.90;;;;;;5067526;28;20033;-87
2023/10/23 05:51:04;;;;;;;15.00;13.45;;;6.00;99.90;;;;;;5086307;28;20051;-87
2023/10/23 05:53:31;;;;;;;15.95;14.25;;;6.00;99.90;;;;;;5051309;28;20115;-87
2023/10/23 05:56:05;;;;;;;15.57;14.02;;;6.00;99.90;;;;;;5052900;28;20040;-87
2023/10/23 05:58:31;;;;;;;14.55;13.07;;;5.90;99.90;;;;;;5052093;28;20054;-87
2023/10/23 06:00:57;;;;;;;16.70;14.63;;;5.90;99.90;;;;;;5068723;28;20115;-87
2023/10/23 06:03:22;;;;;;;15.05;13.52;;;5.80;99.90;;;;;;5062831;28;20123;-88
2023/10/23 06:05:48;;;;;;;18.92;16.85;;;5.80;99.90;;;;;;5052852;28;20051;-88
2023/10/23 06:08:14;;;;;;;15.50;13.55;;;5.70;99.90;;;;;;5056338;28;20036;-87
2023/10/23 06:10:44;;;;;;;14.38;12.88;;;5.70;99.90;;;;;;5071626;28;20040;-87
2023/10/23 06:13:10;;;;;;;13.93;11.95;;;5.70;99.90;;;;;;5072520;28;20033;-87
2023/10/23 06:15:38;;;;;;;13.35;11.80;;;5.60;99.90;;;;;;5057479;28;20101;-87
2023/10/23 06:18:07;;;;;;;13.38;11.65;;;5.60;99.90;;;;;;5073741;28;20123;-88
2023/10/23 06:20:34;;;;;;;11.50;10.30;;;5.60;99.90;;;;;;5053349;28;20096;-87
2023/10/23 06:23:03;;;;;;;10.95;9.65;;;5.50;99.90;;;;;;5055906;28;20061;-87
2023/10/23 06:25:35;;;;;;;11.27;9.75;;;5.50;99.90;;;;;;5051589;28;20310;-87
2023/10/23 06:28:03;;;;;;;11.02;9.60;;;5.60;99.90;;;;;;5078761;28;20064;-87
2023/10/23 06:30:31;;;;;;;13.05;10.30;;;5.50;99.90;;;;;;5060974;28;20431;-87
2023/10/23 06:32:57;;;;;;;12.50;9.90;;;5.60;99.90;;;;;;5055018;28;20078;-87
2023/10/23 06:35:22;;;;;;;13.88;11.07;;;5.60;99.90;;;;;;5070274;28;20040;-87
2023/10/23 06:37:48;;;;;;;14.65;11.38;;;5.70;99.90;;;;;;5068427;28;20395;-87
2023/10/23 06:40:14;;;;;;;11.85;10.65;;;5.70;99.90;;;;;;5071966;28;20024;-88
2023/10/23 06:42:39;;;;;;;14.05;10.52;;;5.80;99.90;;;;;;5054519;28;20443;-87
2023/10/23 06:45:06;;;;;;;14.45;11.18;;;5.80;99.90;;;;;;5061238;28;20028;-87
2023/10/23 06:47:32;;;;;;;12.88;10.57;;;5.80;99.90;;;;;;5054343;28;20344;-86
2023/10/23 06:49:59;;;;;;;11.93;10.27;;;5.80;99.90;;;;;;5054721;28;20051;-87
2023/10/23 06:52:28;;;;;;;13.65;10.82;;;5.90;99.90;;;;;;5055270;28;20426;-88
2023/10/23 06:54:57;;;;;;;12.68;10.80;;;5.90;99.90;;;;;;5071159;28;20100;-87
2023/10/23 06:57:22;;;;;;;11.70;10.32;;;5.90;99.90;;;;;;5055391;28;20166;-87
2023/10/23 06:59:48;;;;;;;14.13;10.70;;;6.00;99.90;;;;;;5054474;28;20036;-86
2023/10/23 07:02:14;;;;;;;10.80;9.30;;;6.00;99.90;;;;;;5070011;28;20500;-87
2023/10/23 07:04:39;;;;;;;12.65;11.35;;;6.00;99.90;;;;;;5055002;28;20487;-87
2023/10/23 07:07:05;;;;;;;15.38;12.10;;;6.00;99.90;;;;;;5058539;28;20033;-88
2023/10/23 07:09:31;;;;;;;16.17;11.63;;;6.00;99.90;;;;;;5054104;28;20033;-87
2023/10/23 07:11:57;;;;;;;12.32;11.00;;;6.00;99.90;;;;;;5067215;28;20102;-86
2023/10/23 07:14:22;;;;;;;14.10;11.95;;;6.00;99.90;;;;;;5050957;28;20059;-87
2023/10/23 07:16:48;;;;;;;13.32;11.93;;;6.00;99.90;;;;;;5070231;28;20051;-86
2023/10/23 07:19:14;;;;;;;16.35;12.82;;;6.10;99.90;;;;;;5067828;28;20482;-86
2023/10/23 07:21:40;;;;;;;13.68;11.27;;;6.00;99.90;;;;;;5068729;28;20150;-87
2023/10/23 07:24:06;;;;;;;12.90;10.98;;;6.00;99.90;;;;;;5070253;28;20511;-87
2023/10/23 07:26:31;;;;;;;15.05;11.73;;;6.00;99.90;;;;;;5064521;28;20032;-87
2023/10/23 07:28:57;;;;;;;13.60;10.65;;;6.10;99.90;;;;;;5070915;28;20047;-86
2023/10/23 07:31:22;;;;;;;14.65;11.75;;;6.10;99.90;;;;;;5049826;28;20037;-86
2023/10/23 07:33:50;;;;;;;16.50;12.52;;;6.10;99.90;;;;;;5065176;28;20291;-86
2023/10/23 07:36:16;;;;;;;13.32;11.25;;;6.20;99.90;;;;;;5066776;28;20048;-86
2023/10/23 07:38:43;;;;;;;13.20;10.90;;;6.20;99.90;;;;;;5066444;28;20116;-86
2023/10/23 07:41:09;;;;;;;14.93;12.18;;;6.20;99.90;;;;;;5067450;28;20094;-86
2023/10/23 07:43:35;;;;;;;11.57;10.32;;;6.30;99.90;;;;;;5063720;28;20075;-86
2023/10/23 07:46:05;;;;;;;12.57;9.85;;;6.30;99.90;;;;;;5050090;28;20025;-86
2023/10/23 07:48:31;;;;;;;12.27;10.63;;;6.30;99.90;;;;;;5050647;28;20034;-86
2023/10/23 07:50:58;;;;;;;13.27;11.93;;;6.40;99.90;;;;;;5061744;28;20510;-86
2023/10/23 07:53:24;;;;;;;13.65;12.23;;;6.40;99.90;;;;;;5046959;28;20823;-86
2023/10/23 07:55:50;;;;;;;15.73;12.88;;;6.50;99.90;;;;;;5046642;28;20518;-86
2023/10/23 07:58:16;;;;;;;22.98;14.80;;;6.60;99.90;;;;;;5066172;28;20044;-86
2023/10/23 08:00:43;;;;;;;29.92;15.65;;;6.70;99.90;;;;;;5063956;28;20045;-86
2023/10/23 08:03:09;;;;;;;25.83;14.82;;;6.80;99.90;;;;;;5047023;28;20090;-86
2023/10/23 08:05:35;;;;;;;45.95;17.13;;;7.00;99.90;;;;;;5043776;28;20095;-85
2023/10/23 08:08:00;;;;;;;29.17;16.73;;;7.20;99.90;;;;;;5060110;28;20130;-86
2023/10/23 08:10:26;;;;;;;87.95;20.02;;;7.40;99.90;;;;;;5061034;28;20040;-86
2023/10/23 08:12:52;;;;;;;68.47;18.95;;;7.60;99.90;;;;;;5043613;28;20036;-86
2023/10/23 08:15:17;;;;;;;34.72;17.30;;;7.90;99.90;;;;;;5060089;28;20066;-86
2023/10/23 08:17:46;;;;;;;54.95;16.85;;;8.10;99.90;;;;;;5060580;28;20573;-86
2023/10/23 08:20:11;;;;;;;112.55;20.33;;;8.30;99.90;;;;;;5043731;28;20036;-86
2023/10/23 08:22:37;;;;;;;50.72;17.17;;;8.40;99.90;;;;;;5062517;28;20040;-86
2023/10/23 08:25:04;;;;;;;41.38;17.25;;;8.60;99.90;;;;;;5060709;28;20904;-86
2023/10/23 08:27:30;;;;;;;90.38;17.52;;;8.70;99.90;;;;;;5044033;28;20550;-84
2023/10/23 08:29:56;;;;;;;88.93;18.50;;;8.90;99.90;;;;;;5060255;28;20121;-84
2023/10/23 08:32:21;;;;;;;48.90;15.40;;;9.00;99.90;;;;;;5044506;28;20040;-87
2023/10/23 08:34:47;;;;;;;82.30;17.15;;;9.10;99.90;;;;;;5059607;28;20089;-86
2023/10/23 08:37:14;;;;;;;117.53;23.17;;;9.20;99.90;;;;;;5061893;28;20036;-86
2023/10/23 08:39:44;;;;;;;90.38;17.38;;;9.20;99.90;;;;;;5045383;28;20494;-86
2023/10/23 08:42:10;;;;;;;22.38;12.65;;;9.20;99.90;;;;;;5044636;28;20596;-86
2023/10/23 08:44:35;;;;;;;45.63;15.13;;;9.20;99.90;;;;;;5060829;28;20032;-88
2023/10/23 08:47:02;;;;;;;32.22;14.38;;;9.20;99.90;;;;;;5061771;28;20040;-85
2023/10/23 08:49:29;;;;;;;42.33;15.48;;;9.20;99.90;;;;;;5042313;28;20044;-89
2023/10/23 08:51:59;;;;;;;25.45;15.05;;;9.20;99.90;;;;;;5042681;28;20810;-88
2023/10/23 08:54:26;;;;;;;27.58;15.07;;;9.20;99.90;;;;;;5045955;28;20063;-87
2023/10/23 08:57:02;;;;;;;23.10;14.65;;;9.30;99.90;;;;;;5045591;28;20036;-88
2023/10/23 08:59:28;;;;;;;25.42;17.15;;;9.30;99.90;;;;;;5056986;28;20391;-86
2023/10/23 09:01:54;;;;;;;23.77;17.15;;;9.40;99.90;;;;;;5062607;28;20037;-86
2023/10/23 09:04:20;;;;;;;24.25;18.10;;;9.50;99.90;;;;;;5047844;28;20099;-87
2023/10/23 09:06:47;;;;;;;29.73;21.20;;;9.60;99.90;;;;;;5043372;28;20194;-87
2023/10/23 09:09:13;;;;;;;29.05;20.05;;;9.60;99.90;;;;;;5063697;28;20049;-88
2023/10/23 09:11:43;;;;;;;32.83;21.50;;;9.70;99.90;;;;;;5045729;28;20403;-87
2023/10/23 09:14:10;;;;;;;34.72;20.48;;;9.80;99.90;;;;;;5047257;28;20048;-87
2023/10/23 09:16:36;;;;;;;34.97;20.50;;;9.80;99.90;;;;;;5062644;28;20044;-87
2023/10/23 09:19:02;;;;;;;60.25;21.13;;;9.80;99.90;;;;;;5045457;28;20060;-86
2023/10/23 09:21:33;;;;;;;90.97;23.02;;;9.90;99.90;;;;;;5061785;28;20589;-87
2023/10/23 09:24:00;;;;;;;27.35;18.52;;;9.90;99.90;;;;;;5063570;28;20518;-86
2023/10/23 09:26:26;;;;;;;50.03;18.40;;;10.00;99.90;;;;;;5062299;28;20037;-86
2023/10/23 09:28:52;;;;;;;42.35;18.88;;;10.20;99.90;;;;;;5043563;28;20490;-87
2023/10/23 09:31:20;;;;;;;30.85;18.17;;;10.40;99.90;;;;;;5046295;28;20140;-86
2023/10/23 09:33:48;;;;;;;67.50;22.10;;;10.50;99.90;;;;;;5043831;28;20049;-86
2023/10/23 09:36:15;;;;;;;79.15;24.33;;;10.50;99.90;;;;;;5041745;28;20040;-85
2023/10/23 09:38:42;;;;;;;61.20;23.70;;;10.50;99.90;;;;;;5058347;28;20044;-87
2023/10/23 09:41:12;;;;;;;45.03;22.80;;;10.50;99.90;;;;;;5063308;28;20036;-88
2023/10/23 09:43:45;;;;;;;34.20;21.35;;;10.60;99.90;;;;;;5047449;28;20048;-87
2023/10/23 09:46:14;;;;;;;38.78;22.95;;;10.60;99.90;;;;;;5064204;28;20117;-87
2023/10/23 09:48:44;;;;;;;36.00;22.77;;;10.70;99.90;;;;;;5049038;28;20046;-86
2023/10/23 09:51:15;;;;;;;33.53;22.55;;;10.80;99.90;;;;;;5059431;28;20047;-85
2023/10/23 09:53:48;;;;;;;31.20;21.48;;;10.80;99.90;;;;;;5065108;28;20048;-86
2023/10/23 09:56:19;;;;;;;30.65;21.48;;;11.00;99.90;;;;;;5061002;28;20561;-86
2023/10/23 09:58:50;;;;;;;25.88;19.25;;;11.10;99.90;;;;;;5049717;28;20037;-87
2023/10/23 10:01:18;;;;;;;27.70;20.70;;;11.10;99.90;;;;;;5066206;28;20551;-88
2023/10/23 10:03:47;;;;;;;27.80;19.85;;;11.10;99.90;;;;;;5065003;28;20059;-87
2023/10/23 10:06:17;;;;;;;29.73;20.30;;;11.10;99.90;;;;;;5049309;28;20040;-87
2023/10/23 10:08:50;;;;;;;27.95;20.83;;;11.10;99.90;;;;;;5050944;28;20447;-87
2023/10/23 10:11:17;;;;;;;34.65;22.90;;;11.00;99.90;;;;;;5066418;28;20521;-87
2023/10/23 10:13:42;;;;;;;40.47;25.15;;;11.00;99.90;;;;;;5065797;28;20589;-87
2023/10/23 10:16:09;;;;;;;39.60;26.27;;;11.00;99.90;;;;;;5047274;28;20105;-87
2023/10/23 10:18:36;;;;;;;44.42;26.25;;;11.10;99.90;;;;;;5064823;28;20060;-87
2023/10/23 10:21:09;;;;;;;40.08;25.38;;;11.10;99.90;;;;;;5064528;28;20040;-87
2023/10/23 10:23:38;;;;;;;39.55;24.35;;;11.20;99.90;;;;;;5039229;28;20049;-87
2023/10/23 10:26:05;;;;;;;34.67;23.63;;;11.20;99.90;;;;;;5064490;28;20547;-87
2023/10/23 10:28:30;;;;;;;35.42;24.13;;;11.20;99.90;;;;;;5046618;28;20664;-87
2023/10/23 10:30:56;;;;;;;37.80;24.42;;;11.20;99.90;;;;;;5047609;28;20043;-86
2023/10/23 10:33:24;;;;;;;36.70;25.05;;;11.20;99.90;;;;;;5046477;28;20028;-87
2023/10/23 10:35:52;;;;;;;37.75;25.33;;;11.30;99.90;;;;;;5064411;28;20045;-87
2023/10/23 10:38:22;;;;;;;36.97;25.30;;;11.40;99.90;;;;;;5063295;28;20052;-87
2023/10/23 10:41:14;;;;;;;38.03;24.50;;;11.40;99.90;;;;;;5063438;28;20043;-87
2023/10/23 10:43:43;;;;;;;40.85;25.75;;;11.30;99.90;;;;;;5061722;28;20049;-87
2023/10/23 10:46:26;;;;;;;39.05;26.05;;;11.30;99.90;;;;;;5060068;28;20533;-87
2023/10/23 10:48:54;;;;;;;44.63;28.17;;;11.40;99.90;;;;;;5062475;28;20775;-87
2023/10/23 10:51:38;;;;;;;42.80;28.23;;;11.40;99.90;;;;;;5046628;28;20047;-87
2023/10/23 10:54:07;;;;;;;;;;;11.40;99.90;;;;;;5063235;28;20048;-87
2023/10/23 10:56:33;;;;;;;45.88;30.30;;;11.50;99.90;;;;;;5063918;28;19970;-86
2023/10/23 10:59:00;;;;;;;47.53;29.95;;;11.50;99.90;;;;;;5062521;28;20087;-87
2023/10/23 11:01:26;;;;;;;45.72;31.63;;;11.60;99.90;;;;;;5063149;28;20047;-87
2023/10/23 11:03:52;;;;;;;42.90;29.83;;;11.70;99.90;;;;;;5045311;28;20561;-87
2023/10/23 11:06:17;;;;;;;45.72;30.63;;;11.80;99.90;;;;;;5046594;28;20040;-86
2023/10/23 11:08:43;;;;;;;47.92;32.42;;;11.80;99.90;;;;;;5041695;28;20037;-86
2023/10/23 11:11:09;;;;;;;48.30;34.53;;;11.90;99.90;;;;;;5049421;28;20040;-83
2023/10/23 11:13:35;;;;;;;48.15;35.08;;;11.90;99.90;;;;;;5064844;28;20085;-87
2023/10/23 11:16:01;;;;;;;49.28;34.60;;;12.00;99.90;;;;;;5062882;28;20047;-86
2023/10/23 11:18:30;;;;;;;44.85;34.55;;;12.00;99.90;;;;;;5061728;28;20079;-85
2023/10/23 11:21:00;;;;;;;45.65;32.97;;;12.20;99.90;;;;;;5060332;28;20418;-86
2023/10/23 11:23:28;;;;;;;37.63;27.65;;;12.20;99.90;;;;;;5062000;28;20592;-86
2023/10/23 11:25:54;;;;;;;33.72;25.60;;;12.30;99.90;;;;;;5055040;28;20040;-85
2023/10/23 11:28:21;;;;;;;37.33;26.67;;;12.30;99.90;;;;;;5061600;28;20048;-86
2023/10/23 11:30:49;;;;;;;34.47;27.05;;;12.30;99.90;;;;;;5061484;28;20040;-85
2023/10/23 11:33:18;;;;;;;34.33;26.63;;;12.30;99.90;;;;;;5045388;28;20059;-84
2023/10/23 11:35:43;;;;;;;33.47;26.70;;;12.40;99.90;;;;;;5056855;28;20145;-85
2023/10/23 11:38:18;;;;;;;33.75;27.10;;;12.40;99.90;;;;;;5046577;28;20852;-86
2023/10/23 11:40:45;;;;;;;33.53;25.50;;;12.60;99.90;;;;;;5044063;28;20495;-87
2023/10/23 11:43:13;;;;;;;29.90;23.55;;;12.60;99.90;;;;;;5047315;28;20063;-87
2023/10/23 11:45:43;;;;;;;29.33;22.02;;;12.80;99.90;;;;;;5045937;28;20060;-86
2023/10/23 11:48:12;;;;;;;27.42;22.00;;;12.80;99.90;;;;;;5067224;28;20040;-86
2023/10/23 11:50:39;;;;;;;30.48;22.58;;;12.90;99.90;;;;;;5050560;28;20544;-86
2023/10/23 11:53:05;;;;;;;27.17;21.20;;;12.90;99.90;;;;;;5050239;28;20048;-85
2023/10/23 11:55:31;;;;;;;28.30;22.30;;;13.00;99.90;;;;;;5050101;28;20040;-85
2023/10/23 11:57:56;;;;;;;25.58;21.13;;;13.00;99.90;;;;;;5065760;28;20446;-85
2023/10/23 12:00:23;;;;;;;24.65;18.52;;;13.00;99.90;;;;;;5066327;28;20032;-86
2023/10/23 12:02:49;;;;;;;24.70;19.52;;;13.10;99.90;;;;;;5064512;28;20536;-85
2023/10/23 12:05:21;;;;;;;22.02;18.23;;;13.10;99.90;;;;;;5066772;28;20033;-85
2023/10/23 12:07:52;;;;;;;22.23;18.05;;;13.10;99.90;;;;;;5048449;28;20040;-85
2023/10/23 12:10:20;;;;;;;24.60;18.77;;;12.90;99.90;;;;;;5049570;28;20640;-86
2023/10/23 12:12:46;;;;;;;21.23;17.25;;;13.00;99.90;;;;;;5062473;28;20044;-85
2023/10/23 12:15:14;;;;;;;19.90;17.15;;;13.10;99.90;;;;;;5049991;28;20066;-85
2023/10/23 12:17:41;;;;;;;20.42;15.38;;;13.10;99.90;;;;;;5049820;28;20526;-86
2023/10/23 12:20:09;;;;;;;19.75;16.05;;;13.20;99.90;;;;;;5051449;28;20537;-85
2023/10/23 12:22:42;;;;;;;20.40;16.45;;;13.30;99.90;;;;;;5067812;28;20083;-86
2023/10/23 12:25:09;;;;;;;20.75;17.17;;;13.40;99.90;;;;;;5067503;28;20032;-85
2023/10/23 12:27:36;;;;;;;20.85;16.63;;;13.50;99.90;;;;;;5048238;28;20514;-87
2023/10/23 12:30:04;;;;;;;21.88;16.83;;;13.50;99.90;;;;;;5067067;28;20071;-87
2023/10/23 12:32:30;;;;;;;19.13;15.90;;;13.50;99.90;;;;;;5072674;28;20036;-87
2023/10/23 12:34:59;;;;;;;19.67;16.33;;;13.50;99.90;;;;;;5055491;28;20048;-86
2023/10/23 12:37:26;;;;;;;20.35;16.52;;;13.50;99.90;;;;;;5054735;28;20044;-87